createdAt,value
2023-03-04T00:02:13.773Z,4.37
2023-03-04T00:04:40.551Z,4.35
2023-03-04T00:07:07.201Z,4.43
2023-03-04T00:09:33.780Z,4.38
2023-03-04T00:12:00.397Z,4.37
2023-03-04T00:14:29.366Z,4.38
2023-03-04T00:16:57.042Z,4.37
2023-03-04T00:19:23.702Z,4.37
2023-03-04T00:21:50.349Z,4.40
2023-03-04T00:24:16.927Z,4.40
2023-03-04T00:26:43.984Z,4.36
2023-03-04T00:29:10.650Z,4.36
2023-03-04T00:31:37.421Z,4.34
2023-03-04T00:34:04.109Z,4.35
2023-03-04T00:36:30.725Z,4.36
2023-03-04T00:38:57.361Z,4.38
2023-03-04T00:41:24.009Z,4.39
2023-03-04T00:43:50.750Z,4.38
2023-03-04T00:46:17.383Z,4.37
2023-03-04T00:48:44.054Z,4.38
2023-03-04T00:51:10.690Z,4.39
2023-03-04T00:53:37.297Z,4.38
2023-03-04T00:56:04.168Z,4.35
2023-03-04T00:58:31.044Z,4.34
2023-03-04T01:00:57.701Z,4.31
2023-03-04T01:03:26.910Z,4.29
2023-03-04T01:05:53.548Z,4.26
2023-03-04T01:08:20.280Z,4.23
2023-03-04T01:10:48.605Z,4.26
2023-03-04T01:13:15.228Z,4.20
2023-03-04T01:15:41.921Z,4.21
2023-03-04T01:18:08.740Z,4.19
2023-03-04T01:20:35.690Z,4.21
2023-03-04T01:23:02.322Z,4.18
2023-03-04T01:25:28.956Z,4.22
2023-03-04T01:27:55.612Z,4.24
2023-03-04T01:30:22.238Z,4.26
2023-03-04T01:32:48.873Z,4.25
2023-03-04T01:35:15.711Z,4.21
2023-03-04T01:37:42.436Z,4.20
2023-03-04T01:40:10.270Z,4.21
2023-03-04T01:42:37.056Z,4.15
2023-03-04T01:45:05.837Z,4.07
2023-03-04T01:47:36.196Z,4.07
2023-03-04T01:50:07.507Z,4.08
2023-03-04T01:52:34.341Z,4.14
2023-03-04T01:55:01.001Z,4.18
2023-03-04T01:57:27.648Z,4.14
2023-03-04T02:00:28.521Z,4.04
2023-03-04T02:03:19.623Z,4.03
2023-03-04T02:05:51.417Z,4.01
2023-03-04T02:08:20.767Z,4.01
2023-03-04T02:10:48.151Z,3.93
2023-03-04T02:13:15.640Z,3.97
2023-03-04T02:15:44.210Z,4.01
2023-03-04T02:18:18.506Z,3.98
2023-03-04T02:21:25.320Z,3.99
2023-03-04T02:24:15.517Z,4.05
2023-03-04T02:26:43.776Z,3.99
2023-03-04T02:29:11.780Z,3.99
2023-03-04T02:31:44.378Z,4.01
2023-03-04T02:34:16.454Z,3.97
2023-03-04T02:36:45.109Z,4.06
2023-03-04T02:39:15.014Z,4.01
2023-03-04T02:41:43.535Z,3.96
2023-03-04T02:44:23.181Z,3.91
2023-03-04T02:46:50.943Z,3.98
2023-03-04T02:49:19.108Z,3.87
2023-03-04T02:51:45.932Z,3.80
2023-03-04T02:54:17.585Z,3.80
2023-03-04T02:56:53.133Z,3.89
2023-03-04T02:59:21.118Z,3.90
2023-03-04T03:01:48.179Z,3.82
2023-03-04T03:04:15.259Z,3.76
2023-03-04T03:06:41.924Z,3.76
2023-03-04T03:09:08.930Z,3.82
2023-03-04T03:11:35.743Z,3.80
2023-03-04T03:14:02.497Z,3.75
2023-03-04T03:16:29.291Z,3.74
2023-03-04T03:18:56.025Z,3.69
2023-03-04T03:21:22.928Z,3.71
2023-03-04T03:23:49.615Z,3.68
2023-03-04T03:26:17.665Z,3.67
2023-03-04T03:28:44.468Z,3.72
2023-03-04T03:31:11.203Z,3.61
2023-03-04T03:33:38.022Z,3.54
2023-03-04T03:36:05.659Z,3.62
2023-03-04T03:38:32.297Z,3.48
2023-03-04T03:40:58.954Z,3.59
2023-03-04T03:43:25.685Z,3.60
2023-03-04T03:45:52.358Z,3.58
2023-03-04T03:48:18.989Z,3.60
2023-03-04T03:50:45.804Z,3.60
2023-03-04T03:53:12.476Z,3.54
2023-03-04T03:55:39.327Z,3.59
2023-03-04T03:58:06.378Z,3.58
2023-03-04T04:00:33.030Z,3.48
2023-03-04T04:03:01.176Z,3.48
2023-03-04T04:05:27.921Z,3.59
2023-03-04T04:07:54.617Z,3.52
2023-03-04T04:10:21.704Z,3.50
2023-03-04T04:12:48.636Z,3.50
2023-03-04T04:15:15.296Z,3.66
2023-03-04T04:17:41.945Z,3.53
2023-03-04T04:20:09.352Z,3.53
2023-03-04T04:22:35.947Z,3.50
2023-03-04T04:25:02.589Z,3.49
2023-03-04T04:27:29.229Z,3.52
2023-03-04T04:29:55.841Z,3.54
2023-03-04T04:32:22.484Z,3.63
2023-03-04T04:34:49.162Z,3.58
2023-03-04T04:37:15.770Z,3.51
2023-03-04T04:39:42.358Z,3.50
2023-03-04T04:42:10.806Z,3.48
2023-03-04T04:44:39.032Z,3.55
2023-03-04T04:47:07.354Z,3.56
2023-03-04T04:49:34.317Z,3.52
2023-03-04T04:52:01.228Z,3.60
2023-03-04T04:54:27.957Z,3.55
2023-03-04T04:56:54.586Z,3.54
2023-03-04T04:59:21.407Z,3.51
2023-03-04T05:01:48.077Z,3.55
2023-03-04T05:04:14.912Z,3.50
2023-03-04T05:06:41.601Z,3.49
2023-03-04T05:09:08.309Z,3.47
2023-03-04T05:11:35.092Z,3.48
2023-03-04T05:14:01.875Z,3.46
2023-03-04T05:16:28.612Z,3.47
2023-03-04T05:18:55.356Z,3.47
2023-03-04T05:21:22.014Z,3.47
2023-03-04T05:23:48.631Z,3.35
2023-03-04T05:26:17.117Z,3.35
2023-03-04T05:28:44.416Z,3.40
2023-03-04T05:31:11.336Z,3.50
2023-03-04T05:33:38.571Z,3.46
2023-03-04T05:36:06.542Z,3.42
2023-03-04T05:38:33.661Z,3.48
2023-03-04T05:41:04.914Z,3.40
2023-03-04T05:43:32.463Z,3.41
2023-03-04T05:45:59.158Z,3.41
2023-03-04T05:48:25.960Z,3.46
2023-03-04T05:51:00.563Z,3.43
2023-03-04T05:53:27.729Z,3.42
2023-03-04T05:55:54.898Z,3.45
2023-03-04T05:58:21.629Z,3.49
2023-03-04T06:00:48.530Z,3.51
2023-03-04T06:03:21.230Z,3.54
2023-03-04T06:05:48.402Z,3.62
2023-03-04T06:08:15.085Z,3.52
2023-03-04T06:10:42.576Z,3.57
2023-03-04T06:13:10.416Z,3.61
2023-03-04T06:15:37.405Z,3.61
2023-03-04T06:18:05.031Z,3.49
2023-03-04T06:20:31.722Z,3.49
2023-03-04T06:22:58.617Z,3.50
2023-03-04T06:25:25.531Z,3.53
2023-03-04T06:27:53.619Z,3.50
2023-03-04T06:30:21.830Z,3.56
2023-03-04T06:32:48.443Z,3.61
2023-03-04T06:35:16.464Z,3.54
2023-03-04T06:37:43.752Z,3.49
2023-03-04T06:40:11.820Z,3.48
2023-03-04T06:42:40.734Z,3.45
2023-03-04T06:45:08.494Z,3.37
2023-03-04T06:47:35.175Z,3.43
2023-03-04T06:50:03.201Z,3.49
2023-03-04T06:52:29.939Z,3.55
2023-03-04T06:54:56.554Z,3.50
2023-03-04T06:57:23.259Z,3.48
2023-03-04T06:59:49.879Z,3.47
2023-03-04T07:02:16.545Z,3.48
2023-03-04T07:04:43.132Z,3.52
2023-03-04T07:07:11.693Z,3.52
2023-03-04T07:09:38.374Z,3.48
2023-03-04T07:12:05.237Z,3.51
2023-03-04T07:14:31.846Z,3.59
2023-03-04T07:16:58.599Z,3.63
2023-03-04T07:19:25.646Z,3.63
2023-03-04T07:21:52.259Z,3.64
2023-03-04T07:24:18.958Z,3.64
2023-03-04T07:26:45.678Z,3.62
2023-03-04T07:29:13.053Z,3.67
2023-03-04T07:31:39.812Z,3.60
2023-03-04T07:34:09.784Z,3.55
2023-03-04T07:36:37.698Z,3.53
2023-03-04T07:39:05.290Z,3.54
2023-03-04T07:41:32.533Z,3.51
2023-03-04T07:43:59.303Z,3.42
2023-03-04T07:46:25.991Z,3.41
2023-03-04T07:48:53.198Z,3.46
2023-03-04T07:51:22.540Z,3.51
2023-03-04T07:53:51.595Z,3.49
2023-03-04T07:56:20.919Z,3.53
2023-03-04T07:58:47.893Z,3.62
2023-03-04T08:01:17.955Z,3.61
2023-03-04T08:03:44.909Z,3.61
2023-03-04T08:06:14.289Z,3.56
2023-03-04T08:08:41.197Z,3.54
2023-03-04T08:11:10.797Z,3.54
2023-03-04T08:13:37.643Z,3.48
2023-03-04T08:16:05.257Z,3.46
2023-03-04T08:18:32.100Z,3.48
2023-03-04T08:20:58.692Z,3.48
2023-03-04T08:23:25.867Z,3.56
2023-03-04T08:25:53.552Z,3.55
2023-03-04T08:28:20.716Z,3.61
2023-03-04T08:30:53.618Z,3.52
2023-03-04T08:33:20.535Z,3.55
2023-03-04T08:35:47.314Z,3.65
2023-03-04T08:38:13.964Z,3.74
2023-03-04T08:40:40.673Z,3.69
2023-03-04T08:43:07.274Z,3.75
2023-03-04T08:45:33.902Z,3.69
2023-03-04T08:48:00.596Z,3.64
2023-03-04T08:50:27.574Z,3.70
2023-03-04T08:53:01.506Z,3.57
2023-03-04T08:55:28.488Z,3.61
2023-03-04T08:57:55.298Z,3.61
2023-03-04T09:00:23.855Z,3.60
2023-03-04T09:02:50.510Z,3.49
2023-03-04T09:05:17.238Z,3.51
2023-03-04T09:07:43.888Z,3.63
2023-03-04T09:10:11.315Z,3.61
2023-03-04T09:12:38.006Z,3.61
2023-03-04T09:15:11.612Z,3.65
2023-03-04T09:17:40.005Z,3.65
2023-03-04T09:20:10.280Z,3.59
2023-03-04T09:22:38.360Z,3.67
2023-03-04T09:25:07.350Z,3.72
2023-03-04T09:27:35.479Z,3.77
2023-03-04T09:30:02.169Z,3.63
2023-03-04T09:32:28.852Z,3.68
2023-03-04T09:34:55.502Z,3.63
2023-03-04T09:37:22.160Z,3.68
2023-03-04T09:39:50.390Z,3.70
2023-03-04T09:42:28.355Z,3.78
2023-03-04T09:44:55.486Z,3.75
2023-03-04T09:47:25.047Z,3.87
2023-03-04T09:50:04.429Z,3.69
2023-03-04T09:52:46.591Z,3.70
2023-03-04T09:55:34.764Z,3.71
2023-03-04T09:58:55.487Z,3.73
2023-03-04T10:01:26.830Z,3.75
2023-03-04T10:04:02.982Z,3.81
2023-03-04T10:06:32.054Z,3.95
2023-03-04T10:09:24.560Z,3.97
2023-03-04T10:12:13.469Z,3.92
2023-03-04T10:14:51.441Z,3.76
2023-03-04T10:17:35.079Z,3.87
2023-03-04T10:20:04.902Z,3.85
2023-03-04T10:22:42.393Z,4.04
2023-03-04T10:25:20.979Z,4.15
2023-03-04T10:27:52.600Z,4.04
2023-03-04T10:30:31.936Z,4.13
2023-03-04T10:32:58.717Z,4.13
2023-03-04T10:35:33.447Z,3.92
2023-03-04T10:38:03.814Z,4.01
2023-03-04T10:40:38.326Z,3.95
2023-03-04T10:43:08.352Z,3.96
2023-03-04T10:45:39.809Z,4.02
2023-03-04T10:48:07.320Z,3.92
2023-03-04T10:50:33.990Z,4.16
2023-03-04T10:53:00.645Z,4.22
2023-03-04T10:55:43.298Z,4.18
2023-03-04T10:58:15.873Z,4.15
2023-03-04T11:00:42.716Z,4.19
2023-03-04T11:03:29.700Z,4.21
2023-03-04T11:06:05.733Z,4.28
2023-03-04T11:08:32.385Z,4.23
2023-03-04T11:10:59.090Z,4.35
2023-03-04T11:13:27.079Z,4.42
2023-03-04T11:16:05.529Z,4.46
2023-03-04T11:18:45.940Z,4.49
2023-03-04T11:21:17.704Z,4.39
2023-03-04T11:23:54.948Z,4.48
2023-03-04T11:26:26.668Z,4.42
2023-03-04T11:28:58.817Z,4.33
2023-03-04T11:31:50.107Z,4.47
2023-03-04T11:34:34.405Z,4.49
2023-03-04T11:37:13.887Z,4.34
2023-03-04T11:39:54.805Z,4.37
2023-03-04T11:42:40.125Z,4.51
2023-03-04T11:45:27.761Z,4.64
2023-03-04T11:48:15.240Z,4.51
2023-03-04T11:50:53.280Z,4.45
2023-03-04T11:53:29.448Z,4.56
2023-03-04T11:56:19.533Z,4.57
2023-03-04T11:59:13.528Z,4.58
2023-03-04T12:02:11.696Z,4.51
2023-03-04T12:05:16.019Z,4.35
2023-03-04T12:07:51.510Z,4.58
2023-03-04T12:10:25.331Z,4.61
2023-03-04T12:13:36.242Z,4.60
2023-03-04T12:16:18.339Z,4.65
2023-03-04T12:19:03.578Z,4.64
2023-03-04T12:22:00.139Z,4.62
2023-03-04T12:24:46.525Z,4.77
2023-03-04T12:27:38.715Z,4.77
2023-03-04T12:30:08.008Z,4.58
2023-03-04T12:33:02.867Z,4.67
2023-03-04T12:35:42.759Z,4.84
2023-03-04T12:38:18.432Z,4.89
2023-03-04T12:40:53.413Z,4.75
2023-03-04T12:43:48.736Z,4.72
2023-03-04T12:46:40.363Z,4.90
2023-03-04T12:49:19.042Z,5.03
2023-03-04T12:52:19.637Z,4.97
2023-03-04T12:54:50.577Z,4.79
2023-03-04T12:57:24.445Z,4.75
2023-03-04T13:00:16.261Z,4.76
2023-03-04T13:03:20.400Z,4.74
2023-03-04T13:06:03.847Z,4.69
2023-03-04T13:08:49.246Z,4.91
2023-03-04T13:11:34.208Z,4.90
2023-03-04T13:14:05.593Z,4.96
2023-03-04T13:16:41.371Z,5.04
2023-03-04T13:19:43.472Z,5.13
2023-03-04T13:22:47.622Z,5.18
2023-03-04T13:25:34.324Z,5.19
2023-03-04T13:28:02.816Z,5.11
2023-03-04T13:30:32.226Z,5.04
2023-03-04T13:33:11.078Z,5.25
2023-03-04T13:35:50.116Z,5.28
2023-03-04T13:38:32.441Z,5.31
2023-03-04T13:41:28.904Z,5.23
2023-03-04T13:43:56.373Z,5.34
2023-03-04T13:46:24.052Z,5.40
2023-03-04T13:48:50.860Z,5.20
2023-03-04T13:51:46.167Z,5.29
2023-03-04T13:54:31.835Z,5.40
2023-03-04T13:57:01.457Z,5.25
2023-03-04T13:59:46.573Z,5.28
2023-03-04T14:02:22.681Z,5.26
2023-03-04T14:05:00.078Z,5.31
2023-03-04T14:07:35.526Z,5.32
2023-03-04T14:10:23.217Z,5.43
2023-03-04T14:12:56.534Z,5.41
2023-03-04T14:15:35.066Z,5.27
2023-03-04T14:18:04.817Z,5.34
2023-03-04T14:20:34.319Z,5.46
2023-03-04T14:23:03.177Z,5.51
2023-03-04T14:25:36.694Z,5.43
2023-03-04T14:28:05.669Z,5.33
2023-03-04T14:30:42.074Z,5.27
2023-03-04T14:33:15.963Z,5.17
2023-03-04T14:35:48.729Z,5.08
2023-03-04T14:38:23.990Z,5.08
2023-03-04T14:41:02.279Z,5.02
2023-03-04T14:43:30.903Z,5.01
2023-03-04T14:46:00.660Z,5.03
2023-03-04T14:48:33.507Z,5.16
2023-03-04T14:51:01.905Z,5.20
2023-03-04T14:53:33.486Z,5.30
2023-03-04T14:56:09.332Z,5.22
2023-03-04T14:58:38.628Z,4.93
2023-03-04T15:01:13.225Z,4.89
2023-03-04T15:03:41.834Z,4.91
2023-03-04T15:06:35.470Z,4.70
2023-03-04T15:09:08.251Z,4.69
2023-03-04T15:11:55.107Z,4.82
2023-03-04T15:14:47.994Z,4.92
2023-03-04T15:17:28.502Z,4.94
2023-03-04T15:20:20.005Z,5.03
2023-03-04T15:22:53.012Z,5.16
2023-03-04T15:25:20.562Z,4.90
2023-03-04T15:27:48.765Z,4.95
2023-03-04T15:30:24.097Z,4.70
2023-03-04T15:32:51.250Z,4.75
2023-03-04T15:35:19.237Z,4.65
2023-03-04T15:37:47.828Z,4.65
2023-03-04T15:40:30.159Z,4.54
2023-03-04T15:42:58.438Z,4.41
2023-03-04T15:45:26.678Z,4.39
2023-03-04T15:47:53.448Z,4.54
2023-03-04T15:50:21.273Z,4.58
2023-03-04T15:52:50.851Z,4.52
2023-03-04T15:55:19.903Z,4.68
2023-03-04T15:57:52.238Z,4.45
2023-03-04T16:00:19.306Z,4.39
2023-03-04T16:02:46.454Z,4.61
2023-03-04T16:05:13.232Z,4.64
2023-03-04T16:07:43.191Z,4.53
2023-03-04T16:10:22.573Z,4.61
2023-03-04T16:12:50.387Z,4.65
2023-03-04T16:15:20.961Z,4.59
2023-03-04T16:17:48.862Z,4.68
2023-03-04T16:20:20.623Z,4.45
2023-03-04T16:22:51.323Z,4.38
2023-03-04T16:25:19.266Z,4.29
2023-03-04T16:27:47.014Z,4.36
2023-03-04T16:30:23.094Z,4.51
2023-03-04T16:32:50.194Z,4.37
2023-03-04T16:35:18.817Z,4.39
2023-03-04T16:37:46.054Z,4.36
2023-03-04T16:40:15.440Z,4.35
2023-03-04T16:42:42.205Z,4.38
2023-03-04T16:45:31.704Z,4.39
2023-03-04T16:47:58.384Z,4.47
2023-03-04T16:50:28.271Z,4.43
2023-03-04T16:52:55.752Z,4.43
2023-03-04T16:55:25.654Z,4.45
2023-03-04T16:57:53.450Z,4.57
2023-03-04T17:00:22.557Z,4.46
2023-03-04T17:02:55.864Z,4.41
2023-03-04T17:05:26.199Z,4.30
2023-03-04T17:07:53.211Z,4.28
2023-03-04T17:10:20.931Z,4.23
2023-03-04T17:12:47.768Z,4.20
2023-03-04T17:15:15.912Z,4.17
2023-03-04T17:17:43.565Z,4.13
2023-03-04T17:20:15.208Z,4.03
2023-03-04T17:22:43.607Z,3.97
2023-03-04T17:25:11.470Z,3.91
2023-03-04T17:27:38.337Z,3.91
2023-03-04T17:30:11.521Z,3.97
2023-03-04T17:32:42.419Z,3.97
2023-03-04T17:35:10.598Z,4.04
2023-03-04T17:37:38.606Z,4.08
2023-03-04T17:40:08.727Z,4.06
2023-03-04T17:42:35.776Z,4.10
2023-03-04T17:45:02.702Z,4.01
2023-03-04T17:47:29.405Z,4.03
2023-03-04T17:49:56.025Z,3.89
2023-03-04T17:52:22.640Z,3.91
2023-03-04T17:54:49.272Z,3.96
2023-03-04T17:57:15.960Z,3.96
2023-03-04T17:59:42.736Z,4.05
2023-03-04T18:02:14.915Z,4.08
2023-03-04T18:04:42.663Z,4.08
2023-03-04T18:07:09.512Z,4.10
2023-03-04T18:09:36.166Z,4.11
2023-03-04T18:12:02.800Z,3.97
2023-03-04T18:14:29.547Z,4.05
2023-03-04T18:16:56.193Z,4.03
2023-03-04T18:19:22.822Z,3.93
2023-03-04T18:21:49.499Z,3.93
2023-03-04T18:24:16.209Z,4.05
2023-03-04T18:26:45.833Z,3.98
2023-03-04T18:29:12.454Z,3.97
2023-03-04T18:31:39.175Z,3.97
2023-03-04T18:34:06.018Z,3.98
2023-03-04T18:36:33.439Z,3.86
2023-03-04T18:39:00.113Z,3.87
2023-03-04T18:41:28.315Z,3.90
2023-03-04T18:44:11.852Z,3.86
2023-03-04T18:46:49.796Z,3.94
2023-03-04T18:49:19.096Z,3.97
2023-03-04T18:51:45.804Z,3.95
2023-03-04T18:54:13.801Z,3.96
2023-03-04T18:56:48.615Z,3.94
2023-03-04T18:59:37.487Z,3.95
2023-03-04T19:02:16.801Z,3.99
2023-03-04T19:04:49.738Z,3.99
2023-03-04T19:07:17.096Z,3.99
2023-03-04T19:09:44.046Z,4.02
2023-03-04T19:12:12.195Z,4.00
2023-03-04T19:14:42.484Z,4.05
2023-03-04T19:17:09.211Z,4.09
2023-03-04T19:19:36.901Z,4.08
2023-03-04T19:22:04.542Z,4.08
2023-03-04T19:24:32.038Z,4.12
2023-03-04T19:27:03.371Z,4.08
2023-03-04T19:29:40.427Z,4.11
2023-03-04T19:32:08.103Z,4.14
2023-03-04T19:34:38.408Z,4.13
2023-03-04T19:37:08.847Z,4.11
2023-03-04T19:39:35.678Z,4.11
2023-03-04T19:42:03.173Z,4.12
2023-03-04T19:44:33.738Z,4.11
2023-03-04T19:47:00.784Z,4.12
2023-03-04T19:49:27.861Z,4.10
2023-03-04T19:51:55.331Z,4.12
2023-03-04T19:54:22.907Z,4.18
2023-03-04T19:56:53.098Z,4.18
2023-03-04T19:59:22.789Z,4.17
2023-03-04T20:01:51.330Z,4.14
2023-03-04T20:04:21.262Z,4.12
2023-03-04T20:06:50.477Z,3.96
2023-03-04T20:09:19.707Z,3.98
2023-03-04T20:11:58.179Z,3.91
2023-03-04T20:14:27.480Z,3.96
2023-03-04T20:16:58.650Z,3.92
2023-03-04T20:19:25.376Z,3.81
2023-03-04T20:21:57.679Z,3.88
2023-03-04T20:24:28.815Z,3.86
2023-03-04T20:26:57.964Z,3.95
2023-03-04T20:29:27.144Z,3.92
2023-03-04T20:31:56.334Z,3.89
2023-03-04T20:34:27.300Z,3.99
2023-03-04T20:36:54.875Z,3.92
2023-03-04T20:39:29.086Z,3.96
2023-03-04T20:41:59.937Z,4.00
2023-03-04T20:44:27.479Z,3.97
2023-03-04T20:46:57.366Z,4.06
2023-03-04T20:49:29.044Z,4.00
2023-03-04T20:52:03.046Z,3.96
2023-03-04T20:54:38.575Z,3.99
2023-03-04T20:57:08.313Z,3.94
2023-03-04T20:59:36.529Z,3.94
2023-03-04T21:02:09.012Z,3.96
2023-03-04T21:04:36.488Z,3.95
2023-03-04T21:07:03.696Z,4.01
2023-03-04T21:09:30.769Z,3.96
2023-03-04T21:12:00.518Z,3.78
2023-03-04T21:14:31.975Z,3.81
2023-03-04T21:17:04.797Z,3.80
2023-03-04T21:19:37.158Z,3.78
2023-03-04T21:22:05.206Z,3.84
2023-03-04T21:24:36.318Z,3.88
2023-03-04T21:27:04.810Z,4.00
2023-03-04T21:29:33.305Z,4.02
2023-03-04T21:32:23.774Z,3.95
2023-03-04T21:34:53.460Z,3.74
2023-03-04T21:37:26.357Z,3.73
2023-03-04T21:39:55.119Z,3.79
2023-03-04T21:42:25.756Z,3.85
2023-03-04T21:44:52.667Z,3.86
2023-03-04T21:47:21.435Z,3.87
2023-03-04T21:49:49.065Z,3.95
2023-03-04T21:52:17.676Z,3.89
2023-03-04T21:54:44.580Z,3.83
2023-03-04T21:57:14.455Z,3.73
2023-03-04T21:59:41.856Z,3.70
2023-03-04T22:02:16.569Z,3.67
2023-03-04T22:04:44.059Z,3.72
2023-03-04T22:07:12.097Z,3.73
2023-03-04T22:09:40.122Z,3.75
2023-03-04T22:12:06.880Z,3.73
2023-03-04T22:14:33.500Z,3.70
2023-03-04T22:17:00.721Z,3.68
2023-03-04T22:19:33.724Z,3.70
2023-03-04T22:22:00.840Z,3.67
2023-03-04T22:24:31.316Z,3.68
2023-03-04T22:27:01.076Z,3.69
2023-03-04T22:29:28.138Z,3.51
2023-03-04T22:31:55.170Z,3.51
2023-03-04T22:34:22.330Z,3.40
2023-03-04T22:36:52.915Z,3.50
2023-03-04T22:39:23.382Z,3.50
2023-03-04T22:41:53.307Z,3.52
2023-03-04T22:44:23.865Z,3.48
2023-03-04T22:46:51.112Z,3.48
2023-03-04T22:49:18.360Z,3.50
2023-03-04T22:51:45.819Z,3.53
2023-03-04T22:54:17.833Z,3.51
2023-03-04T22:56:45.325Z,3.43
2023-03-04T22:59:15.380Z,3.42
2023-03-04T23:01:46.268Z,3.44
2023-03-04T23:04:13.782Z,3.43
2023-03-04T23:06:43.952Z,3.39
2023-03-04T23:09:11.595Z,3.35
2023-03-04T23:11:39.748Z,3.41
2023-03-04T23:14:09.190Z,3.44
2023-03-04T23:16:42.403Z,3.34
2023-03-04T23:19:12.723Z,3.39
2023-03-04T23:21:40.164Z,3.42
2023-03-04T23:24:08.496Z,3.37
2023-03-04T23:26:41.060Z,3.26
2023-03-04T23:29:17.561Z,3.25
2023-03-04T23:31:47.748Z,3.28
2023-03-04T23:34:14.455Z,3.27
2023-03-04T23:36:41.396Z,3.25
2023-03-04T23:39:08.778Z,3.24
2023-03-04T23:41:35.854Z,3.24
2023-03-04T23:44:02.914Z,3.26
2023-03-04T23:46:29.869Z,3.24
2023-03-04T23:48:56.676Z,3.22
2023-03-04T23:51:26.807Z,3.25
2023-03-04T23:53:54.170Z,3.24
2023-03-04T23:56:24.321Z,3.22
2023-03-04T23:58:51.228Z,3.16
